Ana Sayfa
METAR-TAF:

METAR-TAF

Havaalanları :

Shenandoah Municipal Airport

Shenandoah, Iowa, Amerika Birleşik Devletleri

Enlem: 40-45N, Boylam: 095-25W, yükseklik: 296 m

Güncel hava durumu gözlemi

Rapor saat 11:35 UTC de 33 dakika önce yapıldı.
Rüzgar güneybatıdan 12 kt
Sıcaklık 26°C
Nem 79%
Basınç 1007 hPa
Görüş mesafesi: 16.1 km
Açık gökyüzü

METAR: KSDA 251135Z AUTO 23012KT 10SM CLR 26/22 A2974 RMK AO2

Saat: 07:08 (12:08 UTC)


TAF: eksik

4.000'den fazla havaalanı için hava durumu gözlemleri ve tahminleri (METAR ve TAF raporları).

Kullanılabilir istasyonlar harita üzerinde sarı ve kırmızı noktalarla gösterilir.

İstasyonun adını görmek için fareyi noktanın üzerinde gezdirin.

Sonrasında hava gözlem ve tahminlerini görmek için tıklayın.

Haritayı değiştirmek için: yaklaştırmak için siyah artı işaretli yeşil düğmeye ve uzaklaştırmak için de eksi işaretli düğmeye hızla tıklayın; bitişik haritalar için yeşil okları kullanın.


METAR-TAF: